Time;durP1;ratioP1;P1;durP2;ratioP2;P2;SDS_P1;SDS_P2;PMS_P1;PMS_P2;Temp;Humidity;BMP_temperature;BMP_pressure;BME280_temperature;BME280_humidity;BME280_pressure;Samples;Min_cycle;Max_cycle;Signal;HPM_P1;HPM_P2
2023/02/22 00:01:18;;;;;;;;;;;;;;;5.44;73.14;100941.71;104938;1288;61342;-72
2023/02/22 00:04:05;;;;;;;;;;;;;;;5.46;73.15;100945.48;105143;1292;60058;-72
2023/02/22 00:06:51;;;;;;;;;;;;;;;5.47;73.16;100948.41;105130;1288;73199;-72
2023/02/22 00:09:37;;;;;;;;;;;;;;;5.46;73.15;100945.33;105136;1288;69912;-72
2023/02/22 00:12:23;;;;;;;;;;;;;;;5.46;73.18;100937.29;105115;1288;73009;-72
2023/02/22 00:15:12;;;;;;;;;;;;;;;5.44;73.11;100934.54;105158;1288;61100;-72
2023/02/22 00:17:58;;;;;;;;;;;;;;;5.43;73.20;100938.10;105190;1289;61121;-72
2023/02/22 00:20:44;;;;;;;;;;;;;;;5.41;73.15;100941.85;105186;1288;73901;-72
2023/02/22 00:23:30;;;;;;;;;;;;;;;5.39;73.10;100945.93;105154;1288;68633;-72
2023/02/22 00:26:19;;;;;;;;;;;;;;;5.36;73.17;100942.48;105143;1288;72413;-72
2023/02/22 00:29:05;;;;;;;;;;;;;;;5.32;73.12;100947.05;105160;1288;61061;-72
2023/02/22 00:31:52;;;;;;;;;;;;;;;5.26;73.08;100948.19;105136;1288;59222;-72
2023/02/22 00:34:38;;;;;;;;;;;;;;;5.21;73.09;100944.89;104990;1288;72273;-72
2023/02/22 00:37:25;;;;;;;;;;;;;;;5.16;73.10;100942.96;105013;1288;71387;-72
2023/02/22 00:40:13;;;;;;;;;;;;;;;5.10;73.15;100946.15;105146;1288;71367;-72
2023/02/22 00:43:00;;;;;;;;;;;;;;;5.04;73.17;100947.45;105123;1288;61395;-72
2023/02/22 00:45:47;;;;;;;;;;;;;;;4.95;73.10;100946.31;105080;1290;61276;-72
2023/02/22 00:48:34;;;;;;;;;;;;;;;4.88;73.16;100948.11;105137;1288;73403;-72
2023/02/22 00:51:20;;;;;;;;;;;;;;;4.83;73.17;100952.65;105139;1289;67296;-72
2023/02/22 00:54:06;;;;;;;;;;;;;;;4.77;73.21;100953.44;105145;1288;74006;-72
2023/02/22 00:56:52;;;;;;;;;;;;;;;4.72;73.19;100960.02;105050;1288;59594;-72
2023/02/22 00:59:38;;;;;;;;;;;;;;;4.64;73.15;100958.41;105193;1288;62487;-72
2023/02/22 01:02:24;;;;;;;;;;;;;;;4.57;73.17;100965.66;105005;1288;77702;-72
2023/02/22 01:05:12;;;;;;;;;;;;;;;4.50;73.19;100972.38;105176;1288;67282;-72
2023/02/22 01:07:59;;;;;;;;;;;;;;;4.43;73.24;100978.09;105151;1288;71382;-72
2023/02/22 01:10:45;;;;;;;;;;;;;;;4.38;73.22;100978.52;105141;1288;60207;-72
2023/02/22 01:13:33;;;;;;;;;;;;;;;4.31;73.18;100973.45;105194;1288;61257;-72
2023/02/22 01:16:19;;;;;;;;;;;;;;;4.22;73.10;100969.39;105250;1289;74284;-72
2023/02/22 01:19:05;;;;;;;;;;;;;;;4.14;73.18;100970.66;105172;1288;68181;-71
2023/02/22 01:21:51;;;;;;;;;;;;;;;4.08;73.14;100974.32;105118;1288;71412;-71
2023/02/22 01:24:37;;;;;;;;;;;;;;;4.01;73.02;100978.30;105180;1288;61261;-71
2023/02/22 01:27:23;;;;;;;;;;;;;;;3.89;72.94;100980.49;105152;1288;59772;-71
2023/02/22 01:30:11;;;;;;;;;;;;;;;3.78;72.97;100983.36;105126;1288;74475;-71
2023/02/22 01:32:57;;;;;;;;;;;;;;;3.68;72.99;100983.86;105149;1292;68444;-71
2023/02/22 01:35:45;;;;;;;;;;;;;;;3.58;73.06;100981.34;104921;1288;71408;-72
2023/02/22 01:38:31;;;;;;;;;;;;;;;3.51;73.10;100987.33;104968;1288;61335;-71
2023/02/22 01:41:17;;;;;;;;;;;;;;;3.45;73.05;100987.73;105068;1290;61001;-71
2023/02/22 01:44:36;;;;;;;;;;;;;;;3.40;73.08;100992.05;105038;1288;74457;-71
2023/02/22 01:47:22;;;;;;;;;;;;;;;3.34;73.05;100990.74;104512;1296;66867;-72
2023/02/22 01:50:09;;;;;;;;;;;;;;;3.28;73.08;100994.05;104556;1294;72205;-71
2023/02/22 01:52:55;;;;;;;;;;;;;;;3.22;73.19;100992.58;104560;1296;59703;-71
2023/02/22 01:55:42;;;;;;;;;;;;;;;3.16;73.05;100991.92;104566;1294;59492;-71
2023/02/22 01:58:29;;;;;;;;;;;;;;;3.10;73.08;100994.06;104571;1295;73468;-71
2023/02/22 02:01:17;;;;;;;;;;;;;;;3.02;73.10;100997.30;104451;1297;69015;-71
2023/02/22 02:04:05;;;;;;;;;;;;;;;2.94;73.15;100997.13;104549;1298;71120;-71
2023/02/22 02:06:53;;;;;;;;;;;;;;;2.93;73.26;100996.75;104453;1296;59810;-71
2023/02/22 02:09:44;;;;;;;;;;;;;;;2.92;73.25;100996.40;104449;1297;61221;-71
2023/02/22 02:12:32;;;;;;;;;;;;;;;2.92;73.24;100995.20;104496;1294;74050;-71
2023/02/22 02:15:24;;;;;;;;;;;;;;;2.88;73.19;100992.57;104557;1294;68543;-71
2023/02/22 02:18:12;;;;;;;;;;;;;;;2.84;73.15;100992.30;104436;1296;73030;-71
2023/02/22 02:21:17;;;;;;;;;;;;;;;2.81;73.15;100995.98;104543;1295;61396;-71
2023/02/22 02:24:03;;;;;;;;;;;;;;;2.78;73.07;101000.34;105049;1288;59746;-72
2023/02/22 02:26:52;;;;;;;;;;;;;;;2.72;73.14;100999.54;105089;1288;73260;-71
2023/02/22 02:29:57;;;;;;;;;;;;;;;2.64;73.10;100997.30;105074;1288;67315;-71
2023/02/22 02:32:53;;;;;;;;;;;;;;;2.52;73.08;100996.41;105093;1288;74020;-71
2023/02/22 02:35:54;;;;;;;;;;;;;;;2.45;73.16;100996.91;105090;1288;61312;-71
2023/02/22 02:38:44;;;;;;;;;;;;;;;2.43;73.17;100994.65;105124;1288;59795;-71
2023/02/22 02:41:35;;;;;;;;;;;;;;;2.39;73.13;100995.59;105092;1288;74926;-71
2023/02/22 02:44:26;;;;;;;;;;;;;;;2.33;73.06;100994.42;105113;1288;67253;-71
2023/02/22 02:47:16;;;;;;;;;;;;;;;2.27;73.12;100994.96;105044;1289;72809;-71
2023/02/22 02:50:18;;;;;;;;;;;;;;;2.23;72.98;100993.51;105064;1288;61153;-71
2023/02/22 02:53:06;;;;;;;;;;;;;;;2.15;73.02;101000.11;104846;1288;368658;-71
2023/02/22 02:55:52;;;;;;;;;;;;;;;2.09;72.96;100995.04;105120;1288;75920;-71
2023/02/22 02:58:43;;;;;;;;;;;;;;;2.00;72.91;100995.70;105117;1292;67229;-71
2023/02/22 03:01:48;;;;;;;;;;;;;;;1.89;73.02;100997.28;105097;1288;71679;-71
2023/02/22 03:04:53;;;;;;;;;;;;;;;1.84;73.15;101004.48;105142;1288;59125;-71
2023/02/22 03:07:42;;;;;;;;;;;;;;;1.81;73.08;101000.63;105131;1288;61445;-71
2023/02/22 03:10:42;;;;;;;;;;;;;;;1.79;73.21;101001.60;105151;1292;75579;-71
2023/02/22 03:14:04;;;;;;;;;;;;;;;1.75;73.19;101000.65;105132;1292;67286;-71
2023/02/22 03:17:10;;;;;;;;;;;;;;;1.74;73.22;100999.94;104384;1297;71900;-71
2023/02/22 03:20:03;;;;;;;;;;;;;;;1.70;73.21;101002.05;104441;1297;61380;-71
2023/02/22 03:22:54;;;;;;;;;;;;;;;1.68;73.21;100997.23;104478;1296;61221;-74
2023/02/22 03:25:45;;;;;;;;;;;;;;;1.63;73.06;100997.30;104513;1295;74056;-74
2023/02/22 03:28:32;;;;;;;;;;;;;;;1.57;73.09;101002.74;104499;1299;67296;-74
2023/02/22 03:31:22;;;;;;;;;;;;;;;1.52;73.16;100999.73;104482;1297;71185;-71
2023/02/22 03:34:14;;;;;;;;;;;;;;;1.52;73.23;101005.02;104502;1297;61326;-71
2023/02/22 03:37:13;;;;;;;;;;;;;;;1.50;73.07;101009.70;104443;1295;59319;-71
2023/02/22 03:40:05;;;;;;;;;;;;;;;1.45;73.08;101010.59;104405;1297;76111;-71
2023/02/22 03:42:53;;;;;;;;;;;;;;;1.42;73.13;101013.23;105586;1295;67230;-71
2023/02/22 03:45:42;;;;;;;;;;;;;;;1.41;73.11;101016.59;105634;1295;72534;-71
2023/02/22 03:48:28;;;;;;;;;;;;;;;1.39;73.08;101015.17;105632;1297;58961;-71
2023/02/22 03:51:14;;;;;;;;;;;;;;;1.38;73.18;101019.23;105906;1289;58892;-71
2023/02/22 03:54:01;;;;;;;;;;;;;;;1.40;73.16;101023.70;106119;1291;73850;-71
2023/02/22 03:56:53;;;;;;;;;;;;;;;1.39;73.11;101022.98;106153;1292;67830;-71
2023/02/22 03:59:39;;;;;;;;;;;;;;;1.34;73.05;101025.06;106133;1288;71407;-71
2023/02/22 04:02:25;;;;;;;;;;;;;;;1.29;73.08;101031.39;106144;1290;58950;-71
2023/02/22 04:05:12;;;;;;;;;;;;;;;1.28;73.11;101029.99;106118;1293;59984;-71
2023/02/22 04:07:58;;;;;;;;;;;;;;;1.27;73.18;101031.66;106148;1293;74934;-72
2023/02/22 04:10:44;;;;;;;;;;;;;;;1.27;73.18;101033.20;106115;1293;67253;-72
2023/02/22 04:13:30;;;;;;;;;;;;;;;1.29;73.31;101032.23;106138;1290;71884;-72
2023/02/22 04:16:16;;;;;;;;;;;;;;;1.31;73.29;101031.79;106067;1291;58969;-72
2023/02/22 04:19:02;;;;;;;;;;;;;;;1.30;73.31;101033.29;106162;1289;59019;-72
2023/02/22 04:21:48;;;;;;;;;;;;;;;1.36;73.45;101035.83;106096;1289;73948;-72
2023/02/22 04:24:34;;;;;;;;;;;;;;;1.41;73.50;101035.29;106126;1289;67409;-72
2023/02/22 04:27:20;;;;;;;;;;;;;;;1.46;73.54;101037.46;106165;1289;73329;-72
2023/02/22 04:30:06;;;;;;;;;;;;;;;1.51;73.61;101037.61;106159;1293;59224;-72
2023/02/22 04:32:52;;;;;;;;;;;;;;;1.60;73.62;101036.45;106172;1289;58795;-72
2023/02/22 04:35:37;;;;;;;;;;;;;;;1.66;73.59;101038.49;106135;1291;74131;-72
2023/02/22 04:38:24;;;;;;;;;;;;;;;1.72;73.63;101042.38;106194;1291;68560;-72
2023/02/22 04:41:10;;;;;;;;;;;;;;;1.78;73.69;101047.64;106132;1288;72556;-72
2023/02/22 04:43:56;;;;;;;;;;;;;;;1.83;73.69;101048.13;106144;1289;59400;-72
2023/02/22 04:46:42;;;;;;;;;;;;;;;1.89;73.73;101051.67;106183;1289;59521;-72
2023/02/22 04:49:28;;;;;;;;;;;;;;;1.95;73.75;101052.70;106056;1288;75098;-72
2023/02/22 04:52:14;;;;;;;;;;;;;;;1.98;73.73;101056.67;106219;1288;66893;-72
2023/02/22 04:55:00;;;;;;;;;;;;;;;2.01;73.71;101061.17;105853;1288;71236;-72
2023/02/22 04:57:46;;;;;;;;;;;;;;;2.01;73.72;101063.05;105103;1292;61107;-72
2023/02/22 05:00:32;;;;;;;;;;;;;;;2.04;73.81;101065.00;105086;1288;59319;-72
2023/02/22 05:03:18;;;;;;;;;;;;;;;2.11;73.80;101061.89;105034;1289;74459;-72
2023/02/22 05:06:05;;;;;;;;;;;;;;;2.13;73.89;101062.63;104946;1292;67341;-72
2023/02/22 05:08:52;;;;;;;;;;;;;;;2.16;73.97;101061.02;105003;1293;72134;-72
2023/02/22 05:11:38;;;;;;;;;;;;;;;2.19;73.88;101059.21;104963;1291;59696;-72
2023/02/22 05:14:27;;;;;;;;;;;;;;;2.21;74.02;101059.29;104984;1291;61160;-71
2023/02/22 05:17:13;;;;;;;;;;;;;;;2.24;73.95;101056.80;104958;1289;74897;-69
2023/02/22 05:20:00;;;;;;;;;;;;;;;2.26;74.02;101056.50;104800;1289;69986;-68
2023/02/22 05:22:46;;;;;;;;;;;;;;;2.29;74.09;101057.11;104675;1289;72430;-69
2023/02/22 05:25:32;;;;;;;;;;;;;;;2.31;74.14;101057.99;104802;1289;63563;-69
2023/02/22 05:28:18;;;;;;;;;;;;;;;2.35;74.22;101061.82;104807;1291;61171;-69
2023/02/22 05:31:06;;;;;;;;;;;;;;;2.38;74.26;101061.90;104724;1290;76027;-69
2023/02/22 05:33:52;;;;;;;;;;;;;;;2.40;74.30;101060.08;104822;1288;68380;-69
2023/02/22 05:36:38;;;;;;;;;;;;;;;2.40;74.30;101060.76;104796;1292;71172;-69
2023/02/22 05:39:24;;;;;;;;;;;;;;;2.38;74.33;101062.23;104809;1294;61348;-69
2023/02/22 05:42:11;;;;;;;;;;;;;;;2.40;74.38;101065.35;104787;1292;61499;-69
2023/02/22 05:44:58;;;;;;;;;;;;;;;2.43;74.46;101068.83;104776;1290;74234;-69
2023/02/22 05:47:44;;;;;;;;;;;;;;;2.44;74.52;101067.84;104749;1288;69045;-69
2023/02/22 05:50:31;;;;;;;;;;;;;;;2.47;74.50;101072.33;104928;1295;71653;-69
2023/02/22 05:53:18;;;;;;;;;;;;;;;2.51;74.56;101073.45;104693;1289;61172;-71
2023/02/22 05:56:04;;;;;;;;;;;;;;;2.53;74.67;101073.50;104832;1290;62899;-71
2023/02/22 05:58:50;;;;;;;;;;;;;;;2.57;74.70;101077.69;105022;1288;73266;-69
2023/02/22 06:01:37;;;;;;;;;;;;;;;2.62;74.72;101083.56;104755;1292;67553;-69
2023/02/22 06:04:23;;;;;;;;;;;;;;;2.65;74.75;101083.63;104786;1290;73432;-69
2023/02/22 06:07:09;;;;;;;;;;;;;;;2.67;74.77;101086.23;104724;1290;61121;-69
2023/02/22 06:09:55;;;;;;;;;;;;;;;2.70;74.80;101093.96;104808;1292;61155;-69
2023/02/22 06:12:41;;;;;;;;;;;;;;;2.74;74.81;101097.13;104740;1289;74088;-69
2023/02/22 06:15:28;;;;;;;;;;;;;;;2.78;74.91;101098.40;104625;1292;68042;-68
2023/02/22 06:18:14;;;;;;;;;;;;;;;2.82;74.87;101101.05;104825;1290;71227;-68
2023/02/22 06:21:00;;;;;;;;;;;;;;;2.85;74.97;101101.80;104850;1292;61821;-69
2023/02/22 06:23:47;;;;;;;;;;;;;;;2.90;74.98;101103.78;104875;1292;61246;-69
2023/02/22 06:26:33;;;;;;;;;;;;;;;2.92;74.98;101103.52;104927;1290;73552;-69
2023/02/22 06:29:19;;;;;;;;;;;;;;;2.96;74.96;101109.38;104831;1288;67510;-68
2023/02/22 06:32:05;;;;;;;;;;;;;;;2.97;74.91;101112.30;104820;1291;74529;-69
2023/02/22 06:34:51;;;;;;;;;;;;;;;2.97;74.90;101112.65;104680;1289;61738;-69
2023/02/22 06:37:38;;;;;;;;;;;;;;;2.97;74.93;101113.66;104712;1290;59849;-69
2023/02/22 06:40:28;;;;;;;;;;;;;;;2.98;75.00;101115.91;104815;1290;73357;-69
2023/02/22 06:43:14;;;;;;;;;;;;;;;3.03;74.99;101117.88;105056;1288;68318;-71
2023/02/22 06:46:00;;;;;;;;;;;;;;;3.06;75.03;101124.60;105013;1291;73985;-71
2023/02/22 06:48:46;;;;;;;;;;;;;;;3.09;75.01;101128.41;105056;1288;60518;-71
2023/02/22 06:51:36;;;;;;;;;;;;;;;3.12;75.03;101126.76;105163;1288;61168;-69
2023/02/22 06:54:22;;;;;;;;;;;;;;;3.17;75.03;101129.42;105111;1288;75048;-69
2023/02/22 06:57:09;;;;;;;;;;;;;;;3.20;75.05;101137.16;104660;1294;66896;-69
2023/02/22 06:59:55;;;;;;;;;;;;;;;3.23;75.02;101135.69;104763;1290;71348;-69
2023/02/22 07:02:41;;;;;;;;;;;;;;;3.26;75.02;101132.86;104783;1289;61295;-69
2023/02/22 07:05:28;;;;;;;;;;;;;;;3.29;75.04;101130.52;104771;1288;61195;-69
2023/02/22 07:08:14;;;;;;;;;;;;;;;3.38;75.08;101131.58;104801;1288;74146;-69
2023/02/22 07:11:00;;;;;;;;;;;;;;;3.52;75.16;101133.42;104745;1290;68053;-69
2023/02/22 07:13:46;;;;;;;;;;;;;;;3.72;75.13;101141.30;104646;1288;72810;-69
2023/02/22 07:16:33;;;;;;;;;;;;;;;3.85;75.02;101141.55;104757;1290;61114;-69
2023/02/22 07:19:19;;;;;;;;;;;;;;;3.96;75.04;101136.66;104788;1288;61424;-69
2023/02/22 07:22:05;;;;;;;;;;;;;;;4.08;75.03;101135.36;104765;1290;73187;-69
2023/02/22 07:24:52;;;;;;;;;;;;;;;4.21;75.06;101135.23;104768;1291;72934;-69
2023/02/22 07:27:39;;;;;;;;;;;;;;;4.38;74.93;101136.73;104744;1289;71285;-69
2023/02/22 07:30:25;;;;;;;;;;;;;;;4.48;74.90;101141.86;104735;1289;61247;-69
2023/02/22 07:33:11;;;;;;;;;;;;;;;4.56;74.96;101143.03;104699;1291;61155;-69
2023/02/22 07:35:58;;;;;;;;;;;;;;;4.67;74.95;101142.00;104699;1291;74935;-69
2023/02/22 07:38:44;;;;;;;;;;;;;;;4.69;74.76;101143.39;104745;1292;67217;-69
2023/02/22 07:41:30;;;;;;;;;;;;;;;4.63;74.84;101141.27;104699;1288;72374;-69
2023/02/22 07:44:16;;;;;;;;;;;;;;;4.74;74.94;101142.26;104737;1288;62397;-69
2023/02/22 07:47:03;;;;;;;;;;;;;;;4.90;74.94;101142.01;104732;1288;59439;-69
2023/02/22 07:49:49;;;;;;;;;;;;;;;4.94;74.70;101140.39;104714;1290;74136;-69
2023/02/22 07:52:35;;;;;;;;;;;;;;;4.90;74.65;101141.33;104706;1290;67180;-69
2023/02/22 07:55:23;;;;;;;;;;;;;;;4.83;74.67;101146.34;104730;1290;71068;-69
2023/02/22 07:58:13;;;;;;;;;;;;;;;4.76;74.66;101149.13;104769;1288;61219;-69
2023/02/22 08:01:00;;;;;;;;;;;;;;;4.73;74.75;101151.30;104984;1288;61170;-69
2023/02/22 08:03:47;;;;;;;;;;;;;;;4.74;74.61;101151.66;105038;1291;73900;-69
2023/02/22 08:06:33;;;;;;;;;;;;;;;4.80;74.80;101155.34;105108;1292;67268;-69
2023/02/22 08:09:19;;;;;;;;;;;;;;;4.96;74.79;101159.20;105093;1292;71269;-69
2023/02/22 08:12:05;;;;;;;;;;;;;;;5.01;74.50;101160.46;105001;1289;61190;-69
2023/02/22 08:14:51;;;;;;;;;;;;;;;4.99;74.48;101158.55;105052;1288;61392;-69
2023/02/22 08:17:37;;;;;;;;;;;;;;;5.03;74.61;101161.02;105094;1288;73287;-69
2023/02/22 08:20:24;;;;;;;;;;;;;;;5.11;74.71;101161.65;105056;1290;68404;-69
2023/02/22 08:23:11;;;;;;;;;;;;;;;5.24;74.76;101156.17;105098;1288;72169;-69
2023/02/22 08:26:09;;;;;;;;;;;;;;;5.32;74.78;101156.80;104929;1288;61193;-69
2023/02/22 08:28:55;;;;;;;;;;;;;;;5.43;74.59;101162.09;105002;1292;63371;-69
2023/02/22 08:31:48;;;;;;;;;;;;;;;5.48;74.53;101167.45;105098;1290;73364;-69
2023/02/22 08:34:35;;;;;;;;;;;;;;;5.53;74.63;101165.30;105130;1287;67225;-69
2023/02/22 08:37:21;;;;;;;;;;;;;;;5.62;74.70;101163.52;105041;1290;72497;-69
2023/02/22 08:40:07;;;;;;;;;;;;;;;5.71;74.76;101163.64;105073;1289;62294;-69
2023/02/22 08:42:53;;;;;;;;;;;;;;;5.76;74.60;101163.34;105070;1291;60566;-69
2023/02/22 08:45:39;;;;;;;;;;;;;;;5.81;74.78;101167.34;105026;1289;73262;-69
2023/02/22 08:48:26;;;;;;;;;;;;;;;5.89;74.62;101169.34;105011;1292;68105;-69
2023/02/22 08:51:12;;;;;;;;;;;;;;;5.94;74.57;101170.95;104630;1289;70974;-69
2023/02/22 08:53:58;;;;;;;;;;;;;;;5.98;74.52;101173.05;104652;1290;61205;-69
2023/02/22 08:56:44;;;;;;;;;;;;;;;6.01;74.62;101173.61;104637;1289;61431;-69
2023/02/22 08:59:30;;;;;;;;;;;;;;;6.10;74.59;101177.82;104756;1291;73400;-69
2023/02/22 09:02:19;;;;;;;;;;;;;;;6.19;74.49;101180.66;104771;1289;70003;-69
2023/02/22 09:05:05;;;;;;;;;;;;;;;6.20;74.20;101181.36;106054;1289;73170;-69
2023/02/22 09:07:52;;;;;;;;;;;;;;;6.15;74.20;101189.68;104437;1294;61531;-69
2023/02/22 09:10:39;;;;;;;;;;;;;;;6.09;74.16;101187.55;104603;1290;61346;-69
2023/02/22 09:13:25;;;;;;;;;;;;;;;6.01;73.70;101189.69;104644;1289;75087;-69
2023/02/22 09:16:12;;;;;;;;;;;;;;;5.95;74.17;101189.27;104672;1293;71360;-69
2023/02/22 09:18:58;;;;;;;;;;;;;;;6.00;74.35;101193.28;104686;1290;70400;-69
2023/02/22 09:21:44;;;;;;;;;;;;;;;6.04;74.20;101196.73;104685;1290;61110;-69
2023/02/22 09:24:30;;;;;;;;;;;;;;;6.03;74.12;101201.69;104704;1290;61123;-69
2023/02/22 09:27:18;;;;;;;;;;;;;;;5.99;74.14;101205.58;104715;1291;73360;-69
2023/02/22 09:30:10;;;;;;;;;;;;;;;6.01;74.16;101206.45;104757;1291;66196;-69
2023/02/22 09:32:58;;;;;;;;;;;;;;;6.00;74.16;101208.16;105760;1290;72410;-69
2023/02/22 09:35:46;;;;;;;;;;;;;;;5.97;73.96;101208.47;104707;1289;61130;-69
2023/02/22 09:38:32;;;;;;;;;;;;;;;5.94;74.02;101212.20;104669;1291;61172;-69
2023/02/22 09:41:31;;;;;;;;;;;;;;;5.89;73.79;101218.10;104649;1288;73913;-69
2023/02/22 09:44:17;;;;;;;;;;;;;;;5.88;73.88;101214.82;106106;1290;67282;-69
2023/02/22 09:47:03;;;;;;;;;;;;;;;5.84;73.87;101214.94;105376;1292;71291;-69
2023/02/22 09:49:56;;;;;;;;;;;;;;;5.79;73.67;101214.17;104748;1288;61075;-69
2023/02/22 09:53:03;;;;;;;;;;;;;;;5.72;73.82;101209.66;104712;1288;61200;-69
2023/02/22 09:55:51;;;;;;;;;;;;;;;5.71;73.82;101208.64;104775;1288;77425;-69
2023/02/22 09:58:41;;;;;;;;;;;;;;;5.72;73.65;101211.02;104814;1288;71309;-69
2023/02/22 10:01:42;;;;;;;;;;;;;;;5.65;73.36;101212.66;104815;1288;71255;-69
2023/02/22 10:04:34;;;;;;;;;;;;;;;5.56;73.53;101209.11;104832;1292;61264;-69
2023/02/22 10:07:24;;;;;;;;;;;;;;;5.51;73.49;101212.30;104831;1288;61169;-69
2023/02/22 10:10:18;;;;;;;;;;;;;;;5.52;73.38;101211.11;104692;1290;73355;-69
2023/02/22 10:13:24;;;;;;;;;;;;;;;5.49;73.41;101213.46;104815;1288;67233;-69
2023/02/22 10:16:10;;;;;;;;;;;;;;;5.50;73.44;101209.89;104728;1291;71965;-69
2023/02/22 10:19:02;;;;;;;;;;;;;;;5.52;73.26;101212.30;104750;1288;61222;-69
2023/02/22 10:21:48;;;;;;;;;;;;;;;5.51;73.38;101213.66;104748;1288;61289;-69
2023/02/22 10:24:51;;;;;;;;;;;;;;;5.52;73.17;101214.02;104806;1288;73342;-69
2023/02/22 10:27:47;;;;;;;;;;;;;;;5.56;73.26;101212.38;104711;1290;67388;-69
2023/02/22 10:30:53;;;;;;;;;;;;;;;5.64;73.25;101208.02;105247;1288;73640;-69
2023/02/22 10:33:45;;;;;;;;;;;;;;;5.72;73.17;101211.03;101380;1289;5002606;-69
2023/02/22 10:36:33;;;;;;;;;;;;;;;5.78;73.27;101214.17;105070;1290;61153;-69
2023/02/22 10:39:45;;;;;;;;;;;;;;;5.83;73.18;101213.89;105123;1289;74878;-69
2023/02/22 10:42:31;;;;;;;;;;;;;;;5.84;73.03;101214.61;105064;1288;68211;-69
2023/02/22 10:45:17;;;;;;;;;;;;;;;5.83;72.98;101209.63;104785;1289;72087;-69
2023/02/22 10:48:07;;;;;;;;;;;;;;;5.81;72.96;101208.23;104770;1289;61157;-69
2023/02/22 10:50:57;;;;;;;;;;;;;;;5.82;72.98;101209.45;104678;1292;61068;-69
2023/02/22 10:53:51;;;;;;;;;;;;;;;5.86;73.09;101207.95;104799;1288;76024;-69
2023/02/22 10:56:46;;;;;;;;;;;;;;;5.90;73.10;101204.62;104637;1288;67385;-69
2023/02/22 10:59:33;;;;;;;;;;;;;;;5.91;72.95;101203.95;104744;1293;71733;-69
2023/02/22 11:02:22;;;;;;;;;;;;;;;5.88;72.43;101207.66;104718;1290;61107;-69
2023/02/22 11:05:24;;;;;;;;;;;;;;;5.83;72.73;101204.49;104867;1288;61996;-69
2023/02/22 11:08:19;;;;;;;;;;;;;;;5.86;72.95;101199.73;104805;1289;72894;-69
2023/02/22 11:11:20;;;;;;;;;;;;;;;5.86;72.78;101201.80;104717;1288;68017;-69
2023/02/22 11:14:09;;;;;;;;;;;;;;;5.84;72.70;101199.55;104727;1290;71354;-69
2023/02/22 11:16:57;;;;;;;;;;;;;;;5.82;72.64;101199.17;104731;1288;61565;-69
2023/02/22 11:19:47;;;;;;;;;;;;;;;5.84;72.79;101194.76;104786;1288;63192;-69
2023/02/22 11:22:39;;;;;;;;;;;;;;;5.87;72.75;101197.88;104764;1290;75937;-69
2023/02/22 11:25:28;;;;;;;;;;;;;;;5.89;72.58;101195.17;104722;1287;67331;-69
2023/02/22 11:28:19;;;;;;;;;;;;;;;5.92;72.69;101195.56;104671;1288;71120;-69
2023/02/22 11:31:12;;;;;;;;;;;;;;;5.94;72.70;101196.29;104692;1288;61301;-69
2023/02/22 11:33:59;;;;;;;;;;;;;;;5.98;72.63;101195.13;104717;1288;59928;-69
2023/02/22 11:36:45;;;;;;;;;;;;;;;6.02;72.70;101194.32;104818;1288;73332;-69
2023/02/22 11:39:33;;;;;;;;;;;;;;;6.07;72.59;101193.01;104819;1293;69198;-69
2023/02/22 11:42:22;;;;;;;;;;;;;;;6.06;72.43;101196.08;104790;1289;70820;-69
2023/02/22 11:45:08;;;;;;;;;;;;;;;6.07;72.62;101195.59;104711;1288;62259;-69
2023/02/22 11:47:57;;;;;;;;;;;;;;;6.06;72.40;101194.88;104701;1291;61121;-69
2023/02/22 11:50:56;;;;;;;;;;;;;;;6.06;72.39;101190.77;104707;1288;73211;-69
2023/02/22 11:53:48;;;;;;;;;;;;;;;6.12;72.53;101188.79;104707;1290;69061;-69
2023/02/22 11:56:55;;;;;;;;;;;;;;;6.19;72.29;101188.54;104715;1292;71709;-69
2023/02/22 11:59:54;;;;;;;;;;;;;;;6.18;72.23;101189.04;104704;1292;61804;-69
2023/02/22 12:02:59;;;;;;;;;;;;;;;6.17;72.22;101184.05;104636;1288;61013;-69
2023/02/22 12:05:58;;;;;;;;;;;;;;;6.13;72.27;101188.98;104695;1288;73286;-69
2023/02/22 12:09:05;;;;;;;;;;;;;;;6.12;72.15;101188.45;104706;1288;67116;-69
2023/02/22 12:11:54;;;;;;;;;;;;;;;6.11;72.30;101187.77;106053;1288;71262;-69
2023/02/22 12:14:46;;;;;;;;;;;;;;;6.13;72.15;101192.40;106068;1288;59439;-69
2023/02/22 12:17:39;;;;;;;;;;;;;;;6.19;72.40;101190.77;106068;1288;59092;-69
2023/02/22 12:20:44;;;;;;;;;;;;;;;6.24;72.09;101190.11;106026;1288;74096;-69
2023/02/22 12:23:39;;;;;;;;;;;;;;;6.18;72.13;101192.63;105916;1293;68520;-69
2023/02/22 12:26:29;;;;;;;;;;;;;;;6.21;72.18;101194.55;105928;1288;72588;-69
2023/02/22 12:29:15;;;;;;;;;;;;;;;6.25;72.19;101190.30;106104;1288;59066;-69
2023/02/22 12:32:04;;;;;;;;;;;;;;;6.25;71.85;101199.36;106070;1288;59155;-69
2023/02/22 12:34:53;;;;;;;;;;;;;;;6.16;71.84;101196.89;106118;1288;74065;-69
2023/02/22 12:37:57;;;;;;;;;;;;;;;6.08;71.78;101195.25;106125;1288;66350;-70
2023/02/22 12:41:02;;;;;;;;;;;;;;;6.03;71.96;101191.09;106213;1288;72258;-69
2023/02/22 12:44:01;;;;;;;;;;;;;;;6.07;71.93;101187.70;106099;1288;59431;-69
2023/02/22 12:46:55;;;;;;;;;;;;;;;6.13;72.04;101190.69;105959;1288;59078;-69
2023/02/22 12:49:50;;;;;;;;;;;;;;;6.16;71.68;101189.01;106082;1288;73414;-69
2023/02/22 12:52:39;;;;;;;;;;;;;;;6.11;71.91;101194.95;106088;1288;67412;-70
2023/02/22 12:55:27;;;;;;;;;;;;;;;6.12;71.77;101192.90;106105;1288;72660;-69
2023/02/22 12:58:26;;;;;;;;;;;;;;;6.11;71.57;101195.62;105987;1288;59074;-69
2023/02/22 13:01:16;;;;;;;;;;;;;;;6.09;71.76;101191.32;106045;1288;59641;-69
2023/02/22 13:04:03;;;;;;;;;;;;;;;6.12;71.75;101187.42;106050;1288;73391;-69
2023/02/22 13:06:57;;;;;;;;;;;;;;;6.09;71.67;101185.52;106081;1288;69314;-69
2023/02/22 13:09:52;;;;;;;;;;;;;;;6.08;71.60;101186.52;105964;1288;71463;-69
2023/02/22 13:12:44;;;;;;;;;;;;;;;6.03;71.55;101185.77;106159;1288;59590;-69
2023/02/22 13:15:39;;;;;;;;;;;;;;;5.98;71.67;101188.45;106157;1288;59403;-69
2023/02/22 13:18:39;;;;;;;;;;;;;;;5.93;71.53;101192.16;105944;1288;73156;-69
2023/02/22 13:21:43;;;;;;;;;;;;;;;5.93;71.64;101193.52;106096;1288;69342;-69
2023/02/22 13:24:49;;;;;;;;;;;;;;;5.96;71.62;101194.08;106114;1288;72956;-69
2023/02/22 13:27:38;;;;;;;;;;;;;;;5.98;71.67;101196.67;105923;1288;59828;-69
2023/02/22 13:30:24;;;;;;;;;;;;;;;5.97;71.51;101194.44;106093;1288;59201;-69
2023/02/22 13:33:09;;;;;;;;;;;;;;;5.91;71.00;101193.16;105991;1288;73146;-69
2023/02/22 13:36:05;;;;;;;;;;;;;;;5.88;71.45;101193.09;106067;1288;70730;-69
2023/02/22 13:39:00;;;;;;;;;;;;;;;5.86;71.02;101192.72;106052;1289;72076;-70
2023/02/22 13:42:09;;;;;;;;;;;;;;;5.85;71.30;101190.83;106097;1288;59002;-70
2023/02/22 13:45:02;;;;;;;;;;;;;;;5.87;71.40;101188.81;105973;1288;59425;-69
2023/02/22 13:48:02;;;;;;;;;;;;;;;5.87;71.14;101185.55;106116;1293;73318;-69
2023/02/22 13:51:07;;;;;;;;;;;;;;;5.81;71.05;101185.98;105880;1288;68600;-69
2023/02/22 13:53:56;;;;;;;;;;;;;;;5.78;71.00;101184.06;105996;1288;71416;-70
2023/02/22 13:56:46;;;;;;;;;;;;;;;5.77;71.22;101179.77;106038;1288;59394;-69
2023/02/22 13:59:34;;;;;;;;;;;;;;;5.77;71.19;101181.99;106154;1288;59285;-69
2023/02/22 14:02:31;;;;;;;;;;;;;;;5.79;71.16;101181.52;106071;1288;73433;-69
2023/02/22 14:05:37;;;;;;;;;;;;;;;5.84;71.22;101182.42;104783;1288;68838;-69
2023/02/22 14:08:26;;;;;;;;;;;;;;;5.83;70.87;101182.77;104819;1292;71322;-69
2023/02/22 14:11:12;;;;;;;;;;;;;;;5.80;70.97;101184.77;104804;1288;61166;-69
2023/02/22 14:14:01;;;;;;;;;;;;;;;5.78;70.93;101184.42;104917;1288;61266;-69
2023/02/22 14:17:06;;;;;;;;;;;;;;;5.75;70.95;101186.77;104924;1288;73218;-69
2023/02/22 14:20:03;;;;;;;;;;;;;;;5.73;71.03;101187.77;104879;1287;68821;-69
2023/02/22 14:22:51;;;;;;;;;;;;;;;5.71;71.01;101182.64;104801;1288;71849;-69
2023/02/22 14:25:39;;;;;;;;;;;;;;;5.73;71.06;101178.71;104865;1288;61245;-69
2023/02/22 14:28:41;;;;;;;;;;;;;;;5.75;71.11;101180.60;104705;1293;61122;-69
2023/02/22 14:31:29;;;;;;;;;;;;;;;5.74;70.99;101184.52;104805;1288;74809;-69